sensor_id;sensor_type;location;lat;lon;timestamp;pressure;altitude;pressure_sealevel;temperature;humidity
19795;BME280;10057;59.402;17.866;2023-03-20T00:01:31;100982.28;;;2.96;83.06
19795;BME280;10057;59.402;17.866;2023-03-20T00:03:58;100984.03;;;2.96;82.99
19795;BME280;10057;59.402;17.866;2023-03-20T00:06:26;100978.81;;;2.94;83.07
19795;BME280;10057;59.402;17.866;2023-03-20T00:08:56;100965.69;;;2.96;82.93
19795;BME280;10057;59.402;17.866;2023-03-20T00:14:01;100962.19;;;2.97;83.29
19795;BME280;10057;59.402;17.866;2023-03-20T00:16:32;100961.31;;;2.96;82.80
19795;BME280;10057;59.402;17.866;2023-03-20T00:18:59;100971.81;;;2.98;83.22
19795;BME280;10057;59.402;17.866;2023-03-20T00:21:26;100965.66;;;3.00;83.13
19795;BME280;10057;59.402;17.866;2023-03-20T00:23:53;100959.56;;;3.01;82.87
19795;BME280;10057;59.402;17.866;2023-03-20T00:26:23;100960.44;;;3.02;83.23
19795;BME280;10057;59.402;17.866;2023-03-20T00:28:50;100951.69;;;3.00;83.08
19795;BME280;10057;59.402;17.866;2023-03-20T00:31:29;100942.97;;;2.98;82.94
19795;BME280;10057;59.402;17.866;2023-03-20T00:33:58;100943.84;;;2.97;83.10
19795;BME280;10057;59.402;17.866;2023-03-20T00:36:26;100941.22;;;2.95;83.08
19795;BME280;10057;59.402;17.866;2023-03-20T00:38:54;100941.22;;;2.97;83.19
19795;BME280;10057;59.402;17.866;2023-03-20T00:44:02;100929.00;;;2.99;83.13
19795;BME280;10057;59.402;17.866;2023-03-20T00:46:34;100923.75;;;2.99;83.13
19795;BME280;10057;59.402;17.866;2023-03-20T00:49:04;100915.88;;;2.97;83.27
19795;BME280;10057;59.402;17.866;2023-03-20T00:51:31;100906.28;;;2.95;83.21
19795;BME280;10057;59.402;17.866;2023-03-20T00:53:58;100906.28;;;2.95;83.22
19795;BME280;10057;59.402;17.866;2023-03-20T00:56:31;100890.56;;;2.95;83.45
19795;BME280;10057;59.402;17.866;2023-03-20T00:58:59;100895.81;;;2.95;83.52
19795;BME280;10057;59.402;17.866;2023-03-20T01:01:28;100887.06;;;2.94;83.36
19795;BME280;10057;59.402;17.866;2023-03-20T01:03:55;100894.03;;;2.97;83.43
19795;BME280;10057;59.402;17.866;2023-03-20T01:06:21;100883.56;;;2.97;83.55
19795;BME280;10057;59.402;17.866;2023-03-20T01:08:48;100883.56;;;2.97;83.70
19795;BME280;10057;59.402;17.866;2023-03-20T01:11:20;100870.44;;;2.97;83.54
19795;BME280;10057;59.402;17.866;2023-03-20T01:13:48;100864.31;;;2.99;83.31
19795;BME280;10057;59.402;17.866;2023-03-20T01:16:23;100868.69;;;2.99;83.58
19795;BME280;10057;59.402;17.866;2023-03-20T01:18:51;100857.34;;;3.00;83.37
19795;BME280;10057;59.402;17.866;2023-03-20T01:21:19;100857.34;;;3.00;83.67
19795;BME280;10057;59.402;17.866;2023-03-20T01:23:47;100863.44;;;3.02;83.71
19795;BME280;10057;59.402;17.866;2023-03-20T01:26:21;100852.97;;;3.05;83.75
19795;BME280;10057;59.402;17.866;2023-03-20T01:28:49;100860.81;;;3.08;83.61
19795;BME280;10057;59.402;17.866;2023-03-20T01:31:17;100860.75;;;3.11;83.80
19795;BME280;10057;59.402;17.866;2023-03-20T01:33:44;100850.28;;;3.16;83.61
19795;BME280;10057;59.402;17.866;2023-03-20T01:36:13;100846.78;;;3.18;84.03
19795;BME280;10057;59.402;17.866;2023-03-20T01:38:41;100833.63;;;3.21;83.83
19795;BME280;10057;59.402;17.866;2023-03-20T01:41:16;100829.25;;;3.25;83.89
19795;BME280;10057;59.402;17.866;2023-03-20T01:43:44;100825.72;;;3.27;83.95
19795;BME280;10057;59.402;17.866;2023-03-20T01:51:25;100828.34;;;3.32;83.80
19795;BME280;10057;59.402;17.866;2023-03-20T01:54:02;100814.34;;;3.31;83.81
19795;BME280;10057;59.402;17.866;2023-03-20T01:56:35;100813.47;;;3.32;83.84
19795;BME280;10057;59.402;17.866;2023-03-20T01:59:14;100813.47;;;3.31;83.50
19795;BME280;10057;59.402;17.866;2023-03-20T02:01:43;100816.97;;;3.31;83.84
19795;BME280;10057;59.402;17.866;2023-03-20T02:04:10;100819.59;;;3.33;83.73
19795;BME280;10057;59.402;17.866;2023-03-20T02:06:40;100810.81;;;3.34;83.71
19795;BME280;10057;59.402;17.866;2023-03-20T02:09:07;100809.09;;;3.36;83.92
19795;BME280;10057;59.402;17.866;2023-03-20T02:11:36;100810.84;;;3.36;83.85
19795;BME280;10057;59.402;17.866;2023-03-20T02:14:03;100801.22;;;3.35;83.76
19795;BME280;10057;59.402;17.866;2023-03-20T02:16:30;100800.34;;;3.34;83.75
19795;BME280;10057;59.402;17.866;2023-03-20T02:18:57;100795.97;;;3.35;84.07
19795;BME280;10057;59.402;17.866;2023-03-20T02:30:14;100769.75;;;3.31;83.92
19795;BME280;10057;59.402;17.866;2023-03-20T02:36:12;100758.38;;;3.34;83.72
19795;BME280;10057;59.402;17.866;2023-03-20T02:39:07;100751.41;;;3.33;83.78
19795;BME280;10057;59.402;17.866;2023-03-20T02:41:49;100749.69;;;3.32;83.55
19795;BME280;10057;59.402;17.866;2023-03-20T02:47:10;100730.41;;;3.31;83.57
19795;BME280;10057;59.402;17.866;2023-03-20T02:55:47;100726.94;;;3.32;83.66
19795;BME280;10057;59.402;17.866;2023-03-20T02:58:24;100719.06;;;3.32;83.76
19795;BME280;10057;59.402;17.866;2023-03-20T03:00:59;100724.31;;;3.31;83.68
19795;BME280;10057;59.402;17.866;2023-03-20T03:03:37;100712.06;;;3.31;83.96
19795;BME280;10057;59.402;17.866;2023-03-20T03:06:17;100712.06;;;3.33;83.77
19795;BME280;10057;59.402;17.866;2023-03-20T03:08:49;100706.78;;;3.35;84.03
19795;BME280;10057;59.402;17.866;2023-03-20T03:11:18;100719.03;;;3.37;83.84
19795;BME280;10057;59.402;17.866;2023-03-20T03:13:49;100713.78;;;3.39;83.88
19795;BME280;10057;59.402;17.866;2023-03-20T03:16:37;100698.91;;;3.39;83.91
19795;BME280;10057;59.402;17.866;2023-03-20T03:19:12;100702.38;;;3.43;84.03
19795;BME280;10057;59.402;17.866;2023-03-20T03:21:41;100701.47;;;3.44;83.94
19795;BME280;10057;59.402;17.866;2023-03-20T03:27:14;100699.72;;;3.46;84.23
19795;BME280;10057;59.402;17.866;2023-03-20T03:29:46;100688.34;;;3.47;83.92
19795;BME280;10057;59.402;17.866;2023-03-20T03:32:22;100683.09;;;3.47;84.16
19795;BME280;10057;59.402;17.866;2023-03-20T03:34:51;100685.69;;;3.50;84.31
19795;BME280;10057;59.402;17.866;2023-03-20T03:37:26;100671.72;;;3.49;84.32
19795;BME280;10057;59.402;17.866;2023-03-20T03:40:21;100671.69;;;3.52;84.34
19795;BME280;10057;59.402;17.866;2023-03-20T03:42:55;100671.69;;;3.52;84.31
19795;BME280;10057;59.402;17.866;2023-03-20T03:45:30;100671.66;;;3.54;84.18
19795;BME280;10057;59.402;17.866;2023-03-20T03:48:04;100658.53;;;3.55;84.27
19795;BME280;10057;59.402;17.866;2023-03-20T03:50:45;100638.44;;;3.56;84.43
19795;BME280;10057;59.402;17.866;2023-03-20T03:53:19;100639.25;;;3.61;84.59
19795;BME280;10057;59.402;17.866;2023-03-20T03:55:51;100630.47;;;3.62;84.42
19795;BME280;10057;59.402;17.866;2023-03-20T03:58:27;100638.31;;;3.65;84.40
19795;BME280;10057;59.402;17.866;2023-03-20T04:00:57;100641.81;;;3.67;84.60
19795;BME280;10057;59.402;17.866;2023-03-20T04:03:29;100633.94;;;3.67;84.47
19795;BME280;10057;59.402;17.866;2023-03-20T04:05:57;100626.94;;;3.69;84.41
19795;BME280;10057;59.402;17.866;2023-03-20T04:08:25;100638.28;;;3.70;84.69
19795;BME280;10057;59.402;17.866;2023-03-20T04:10:52;100637.34;;;3.72;84.89
19795;BME280;10057;59.402;17.866;2023-03-20T04:13:19;100629.50;;;3.72;84.39
19795;BME280;10057;59.402;17.866;2023-03-20T04:15:45;100617.22;;;3.74;84.55
19795;BME280;10057;59.402;17.866;2023-03-20T04:18:16;100607.59;;;3.76;84.58
19795;BME280;10057;59.402;17.866;2023-03-20T04:20:44;100613.69;;;3.80;84.67
19795;BME280;10057;59.402;17.866;2023-03-20T04:23:13;100609.28;;;3.82;84.70
19795;BME280;10057;59.402;17.866;2023-03-20T04:25:40;100605.78;;;3.83;84.57
19795;BME280;10057;59.402;17.866;2023-03-20T04:28:07;100591.72;;;3.86;84.51
19795;BME280;10057;59.402;17.866;2023-03-20T04:30:33;100592.59;;;3.88;84.49
19795;BME280;10057;59.402;17.866;2023-03-20T04:33:00;100596.06;;;3.90;84.54
19795;BME280;10057;59.402;17.866;2023-03-20T04:35:27;100591.66;;;3.92;84.54
19795;BME280;10057;59.402;17.866;2023-03-20T04:37:54;100589.03;;;3.92;84.57
19795;BME280;10057;59.402;17.866;2023-03-20T04:40:20;100597.78;;;3.92;84.41
19795;BME280;10057;59.402;17.866;2023-03-20T04:42:47;100587.28;;;3.94;84.93
19795;BME280;10057;59.402;17.866;2023-03-20T04:45:14;100582.84;;;3.96;84.59
19795;BME280;10057;59.402;17.866;2023-03-20T04:47:40;100579.31;;;3.98;84.67
19795;BME280;10057;59.402;17.866;2023-03-20T04:50:07;100582.81;;;4.00;84.82
19795;BME280;10057;59.402;17.866;2023-03-20T04:52:34;100581.88;;;4.03;84.86
19795;BME280;10057;59.402;17.866;2023-03-20T04:55:01;100577.53;;;4.03;84.84
19795;BME280;10057;59.402;17.866;2023-03-20T04:57:27;100570.47;;;4.07;84.66
19795;BME280;10057;59.402;17.866;2023-03-20T04:59:54;100565.16;;;4.10;84.89
19795;BME280;10057;59.402;17.866;2023-03-20T05:02:21;100568.66;;;4.12;84.80
19795;BME280;10057;59.402;17.866;2023-03-20T05:04:48;100570.38;;;4.15;84.87
19795;BME280;10057;59.402;17.866;2023-03-20T05:07:15;100580.81;;;4.19;84.87
19795;BME280;10057;59.402;17.866;2023-03-20T05:09:41;100568.53;;;4.20;84.95
19795;BME280;10057;59.402;17.866;2023-03-20T05:12:08;100563.28;;;4.21;84.74
19795;BME280;10057;59.402;17.866;2023-03-20T05:14:35;100560.63;;;4.24;84.77
19795;BME280;10057;59.402;17.866;2023-03-20T05:17:03;100569.31;;;4.26;84.93
19795;BME280;10057;59.402;17.866;2023-03-20T05:19:30;100571.94;;;4.28;84.77
19795;BME280;10057;59.402;17.866;2023-03-20T05:21:56;100562.31;;;4.28;85.14
19795;BME280;10057;59.402;17.866;2023-03-20T05:24:23;100553.53;;;4.31;85.07
19795;BME280;10057;59.402;17.866;2023-03-20T05:26:50;100558.72;;;4.33;84.85
19795;BME280;10057;59.402;17.866;2023-03-20T05:29:17;100554.34;;;4.35;85.05
19795;BME280;10057;59.402;17.866;2023-03-20T05:31:43;100549.94;;;4.35;84.82
19795;BME280;10057;59.402;17.866;2023-03-20T05:34:10;100552.56;;;4.35;84.84
19795;BME280;10057;59.402;17.866;2023-03-20T05:36:37;100545.56;;;4.36;85.09
19795;BME280;10057;59.402;17.866;2023-03-20T05:39:04;100539.41;;;4.37;84.74
19795;BME280;10057;59.402;17.866;2023-03-20T05:41:31;100545.53;;;4.39;84.89
19795;BME280;10057;59.402;17.866;2023-03-20T05:43:58;100551.59;;;4.41;84.88
19795;BME280;10057;59.402;17.866;2023-03-20T05:46:25;100546.34;;;4.41;85.24
19795;BME280;10057;59.402;17.866;2023-03-20T05:48:52;100545.41;;;4.46;84.99
19795;BME280;10057;59.402;17.866;2023-03-20T05:51:19;100540.13;;;4.48;85.16
19795;BME280;10057;59.402;17.866;2023-03-20T05:53:45;100536.56;;;4.50;84.92
19795;BME280;10057;59.402;17.866;2023-03-20T05:56:12;100540.06;;;4.53;85.10
19795;BME280;10057;59.402;17.866;2023-03-20T05:58:39;100526.88;;;4.54;84.89
19795;BME280;10057;59.402;17.866;2023-03-20T06:01:07;100532.09;;;4.57;84.58
19795;BME280;10057;59.402;17.866;2023-03-20T06:03:34;100523.34;;;4.58;84.67
19795;BME280;10057;59.402;17.866;2023-03-20T06:06:02;100526.78;;;4.60;85.26
19795;BME280;10057;59.402;17.866;2023-03-20T06:08:29;100521.53;;;4.62;84.63
19795;BME280;10057;59.402;17.866;2023-03-20T06:10:56;100523.25;;;4.63;85.24
19795;BME280;10057;59.402;17.866;2023-03-20T06:13:22;100522.34;;;4.64;84.50
19795;BME280;10057;59.402;17.866;2023-03-20T06:15:49;100515.31;;;4.66;85.03
19795;BME280;10057;59.402;17.866;2023-03-20T06:18:16;100517.91;;;4.69;85.06
19795;BME280;10057;59.402;17.866;2023-03-20T06:20:43;100522.25;;;4.70;84.69
19795;BME280;10057;59.402;17.866;2023-03-20T06:23:09;100516.13;;;4.69;84.72
19795;BME280;10057;59.402;17.866;2023-03-20T06:25:36;100519.59;;;4.71;85.14
19795;BME280;10057;59.402;17.866;2023-03-20T06:28:04;100511.69;;;4.73;84.74
19795;BME280;10057;59.402;17.866;2023-03-20T06:30:30;100508.16;;;4.75;85.16
19795;BME280;10057;59.402;17.866;2023-03-20T06:32:57;100519.50;;;4.78;84.80
19795;BME280;10057;59.402;17.866;2023-03-20T06:35:24;100521.22;;;4.80;84.86
19795;BME280;10057;59.402;17.866;2023-03-20T06:37:50;100522.03;;;4.84;85.32
19795;BME280;10057;59.402;17.866;2023-03-20T06:40:17;100520.25;;;4.84;85.18
19795;BME280;10057;59.402;17.866;2023-03-20T06:42:44;100520.22;;;4.87;85.26
19795;BME280;10057;59.402;17.866;2023-03-20T06:45:10;100507.91;;;4.89;85.30
19795;BME280;10057;59.402;17.866;2023-03-20T06:47:37;100510.50;;;4.92;84.96
19795;BME280;10057;59.402;17.866;2023-03-20T06:50:04;100517.38;;;4.98;84.80
19795;BME280;10057;59.402;17.866;2023-03-20T06:52:31;100511.22;;;5.01;85.35
19795;BME280;10057;59.402;17.866;2023-03-20T06:54:58;100506.75;;;5.04;85.36
19795;BME280;10057;59.402;17.866;2023-03-20T06:57:24;100506.66;;;5.10;85.37
19795;BME280;10057;59.402;17.866;2023-03-20T06:59:51;100508.34;;;5.14;85.54
19795;BME280;10057;59.402;17.866;2023-03-20T07:02:18;100494.22;;;5.18;85.35
19795;BME280;10057;59.402;17.866;2023-03-20T07:11:11;100501.09;;;5.26;85.53
19795;BME280;10057;59.402;17.866;2023-03-20T07:13:38;100501.09;;;5.26;85.15
19795;BME280;10057;59.402;17.866;2023-03-20T07:16:05;100500.19;;;5.28;84.80
19795;BME280;10057;59.402;17.866;2023-03-20T07:18:32;100498.41;;;5.30;85.13
19795;BME280;10057;59.402;17.866;2023-03-20T07:21:02;100497.44;;;5.33;85.69
19795;BME280;10057;59.402;17.866;2023-03-20T07:23:29;100492.13;;;5.36;84.83
19795;BME280;10057;59.402;17.866;2023-03-20T07:25:57;100493.00;;;5.36;84.92
19795;BME280;10057;59.402;17.866;2023-03-20T07:28:24;100492.94;;;5.39;85.27
19795;BME280;10057;59.402;17.866;2023-03-20T07:30:50;100483.22;;;5.43;85.02
19795;BME280;10057;59.402;17.866;2023-03-20T07:33:17;100484.91;;;5.47;85.78
19795;BME280;10057;59.402;17.866;2023-03-20T07:35:44;100491.78;;;5.53;85.70
19795;BME280;10057;59.402;17.866;2023-03-20T07:38:11;100494.34;;;5.57;85.62
19795;BME280;10057;59.402;17.866;2023-03-20T07:40:38;100488.13;;;5.61;85.56
19795;BME280;10057;59.402;17.866;2023-03-20T07:43:04;100481.88;;;5.65;85.81
19795;BME280;10057;59.402;17.866;2023-03-20T07:45:32;100473.94;;;5.68;85.11
19795;BME280;10057;59.402;17.866;2023-03-20T07:47:58;100477.31;;;5.74;85.17
19795;BME280;10057;59.402;17.866;2023-03-20T07:50:25;100473.72;;;5.78;85.83
19795;BME280;10057;59.402;17.866;2023-03-20T07:52:52;100471.06;;;5.79;85.31
19795;BME280;10057;59.402;17.866;2023-03-20T07:55:19;100471.88;;;5.83;85.64
19795;BME280;10057;59.402;17.866;2023-03-20T07:57:47;100473.53;;;5.87;85.27
19795;BME280;10057;59.402;17.866;2023-03-20T08:00:16;100461.19;;;5.89;85.77
19795;BME280;10057;59.402;17.866;2023-03-20T08:02:43;100459.44;;;5.89;85.83
19795;BME280;10057;59.402;17.866;2023-03-20T08:05:10;100457.63;;;5.93;85.68
19795;BME280;10057;59.402;17.866;2023-03-20T08:07:37;100461.97;;;5.96;85.37
19795;BME280;10057;59.402;17.866;2023-03-20T08:10:04;100459.28;;;5.97;85.38
19795;BME280;10057;59.402;17.866;2023-03-20T08:12:31;100461.00;;;5.98;85.43
19795;BME280;10057;59.402;17.866;2023-03-20T08:14:57;100459.28;;;5.99;85.57
19795;BME280;10057;59.402;17.866;2023-03-20T08:17:24;100451.28;;;6.02;85.61
19795;BME280;10057;59.402;17.866;2023-03-20T08:19:51;100448.63;;;6.03;85.65
19795;BME280;10057;59.402;17.866;2023-03-20T08:22:18;100448.53;;;6.06;85.49
19795;BME280;10057;59.402;17.866;2023-03-20T08:24:44;100445.88;;;6.08;85.98
19795;BME280;10057;59.402;17.866;2023-03-20T08:27:11;100447.56;;;6.10;85.84
19795;BME280;10057;59.402;17.866;2023-03-20T08:29:38;100432.53;;;6.15;85.99
19795;BME280;10057;59.402;17.866;2023-03-20T08:32:04;100435.97;;;6.17;85.52
19795;BME280;10057;59.402;17.866;2023-03-20T08:34:31;100437.63;;;6.23;85.99
19795;BME280;10057;59.402;17.866;2023-03-20T08:36:59;100425.22;;;6.27;85.52
19795;BME280;10057;59.402;17.866;2023-03-20T08:39:27;100432.16;;;6.31;86.23
19795;BME280;10057;59.402;17.866;2023-03-20T08:41:54;100423.25;;;6.35;85.88
19795;BME280;10057;59.402;17.866;2023-03-20T08:44:21;100431.94;;;6.38;85.77
19795;BME280;10057;59.402;17.866;2023-03-20T08:46:47;100433.66;;;6.41;85.45
19795;BME280;10057;59.402;17.866;2023-03-20T08:49:14;100414.28;;;6.42;85.87
19795;BME280;10057;59.402;17.866;2023-03-20T08:51:41;100424.75;;;6.47;85.70
19795;BME280;10057;59.402;17.866;2023-03-20T08:54:08;100423.78;;;6.49;85.55
19795;BME280;10057;59.402;17.866;2023-03-20T08:56:35;100417.53;;;6.53;85.44
19795;BME280;10057;59.402;17.866;2023-03-20T08:59:01;100422.72;;;6.56;85.99
19795;BME280;10057;59.402;17.866;2023-03-20T09:01:28;100412.00;;;6.62;85.68
19795;BME280;10057;59.402;17.866;2023-03-20T09:04:13;100426.91;;;6.65;85.23
19795;BME280;10057;59.402;17.866;2023-03-20T09:06:40;100418.06;;;6.68;85.61
19795;BME280;10057;59.402;17.866;2023-03-20T09:09:07;100421.53;;;6.68;85.68
19795;BME280;10057;59.402;17.866;2023-03-20T09:11:34;100411.78;;;6.72;85.47
19795;BME280;10057;59.402;17.866;2023-03-20T09:14:01;100410.00;;;6.74;85.70
19795;BME280;10057;59.402;17.866;2023-03-20T09:16:28;100413.44;;;6.76;85.61
19795;BME280;10057;59.402;17.866;2023-03-20T09:18:54;100407.22;;;6.78;85.73
19795;BME280;10057;59.402;17.866;2023-03-20T09:21:21;100417.63;;;6.83;85.35
19795;BME280;10057;59.402;17.866;2023-03-20T09:23:48;100412.31;;;6.84;85.10
19795;BME280;10057;59.402;17.866;2023-03-20T09:26:15;100411.34;;;6.87;85.39
19795;BME280;10057;59.402;17.866;2023-03-20T09:28:42;100408.69;;;6.88;85.50
19795;BME280;10057;59.402;17.866;2023-03-20T09:31:08;100414.75;;;6.92;85.40
19795;BME280;10057;59.402;17.866;2023-03-20T09:33:35;100401.56;;;6.92;85.56
19795;BME280;10057;59.402;17.866;2023-03-20T09:36:02;100405.84;;;6.96;85.52
19795;BME280;10057;59.402;17.866;2023-03-20T09:38:29;100402.28;;;6.97;85.11
19795;BME280;10057;59.402;17.866;2023-03-20T09:40:58;100401.41;;;6.98;85.15
19795;BME280;10057;59.402;17.866;2023-03-20T09:46:37;100401.41;;;6.98;85.18
19795;BME280;10057;59.402;17.866;2023-03-20T09:52:32;100397.00;;;6.97;85.02
19795;BME280;10057;59.402;17.866;2023-03-20T09:55:04;100394.44;;;6.96;85.11
19795;BME280;10057;59.402;17.866;2023-03-20T09:57:41;100397.97;;;6.95;85.07
19795;BME280;10057;59.402;17.866;2023-03-20T10:00:19;100396.22;;;6.94;85.18
19795;BME280;10057;59.402;17.866;2023-03-20T10:03:05;100390.09;;;6.93;85.01
19795;BME280;10057;59.402;17.866;2023-03-20T10:05:55;100391.88;;;6.93;84.84
19795;BME280;10057;59.402;17.866;2023-03-20T10:08:33;100385.75;;;6.92;84.83
19795;BME280;10057;59.402;17.866;2023-03-20T10:17:13;100389.28;;;6.91;84.65
19795;BME280;10057;59.402;17.866;2023-03-20T10:19:49;100386.56;;;6.94;84.74
19795;BME280;10057;59.402;17.866;2023-03-20T10:24:59;100394.34;;;6.99;85.00
19795;BME280;10057;59.402;17.866;2023-03-20T10:27:33;100396.03;;;7.01;84.97
19795;BME280;10057;59.402;17.866;2023-03-20T10:32:50;100389.69;;;7.08;85.10
19795;BME280;10057;59.402;17.866;2023-03-20T10:35:27;100389.59;;;7.11;84.75
19795;BME280;10057;59.402;17.866;2023-03-20T10:40:34;100387.75;;;7.15;84.75
19795;BME280;10057;59.402;17.866;2023-03-20T10:43:36;100384.25;;;7.15;84.81
19795;BME280;10057;59.402;17.866;2023-03-20T10:48:39;100385.03;;;7.17;84.95
19795;BME280;10057;59.402;17.866;2023-03-20T10:51:14;100379.78;;;7.17;85.11
19795;BME280;10057;59.402;17.866;2023-03-20T10:53:46;100379.69;;;7.20;85.00
19795;BME280;10057;59.402;17.866;2023-03-20T10:56:35;100378.72;;;7.22;84.67
19795;BME280;10057;59.402;17.866;2023-03-20T10:59:27;100377.72;;;7.26;84.94
19795;BME280;10057;59.402;17.866;2023-03-20T11:01:55;100372.41;;;7.28;84.73
19795;BME280;10057;59.402;17.866;2023-03-20T11:04:21;100371.41;;;7.32;84.75
19795;BME280;10057;59.402;17.866;2023-03-20T11:07:02;100366.91;;;7.35;84.76
19795;BME280;10057;59.402;17.866;2023-03-20T11:09:32;100360.66;;;7.38;84.73
19795;BME280;10057;59.402;17.866;2023-03-20T11:12:01;100364.13;;;7.40;84.61
19795;BME280;10057;59.402;17.866;2023-03-20T11:14:34;100366.59;;;7.46;84.69
19795;BME280;10057;59.402;17.866;2023-03-20T11:17:03;100363.00;;;7.49;84.64
19795;BME280;10057;59.402;17.866;2023-03-20T11:19:35;100359.38;;;7.51;84.67
19795;BME280;10057;59.402;17.866;2023-03-20T11:22:24;100348.81;;;7.51;84.93
19795;BME280;10057;59.402;17.866;2023-03-20T11:24:53;100347.03;;;7.52;84.86
19795;BME280;10057;59.402;17.866;2023-03-20T11:27:26;100348.78;;;7.53;84.96
19795;BME280;10057;59.402;17.866;2023-03-20T11:29:54;100351.28;;;7.57;84.86
19795;BME280;10057;59.402;17.866;2023-03-20T11:37:46;100344.72;;;7.71;84.78
19795;BME280;10057;59.402;17.866;2023-03-20T11:40:24;100345.41;;;7.76;84.62
19795;BME280;10057;59.402;17.866;2023-03-20T11:43:02;100345.19;;;7.83;84.88
19795;BME280;10057;59.402;17.866;2023-03-20T11:45:38;100342.38;;;7.88;84.85
19795;BME280;10057;59.402;17.866;2023-03-20T11:48:09;100345.84;;;7.90;84.88
19795;BME280;10057;59.402;17.866;2023-03-20T11:50:47;100335.28;;;7.90;84.49
19795;BME280;10057;59.402;17.866;2023-03-20T11:53:36;100337.00;;;7.91;84.19
19795;BME280;10057;59.402;17.866;2023-03-20T11:56:11;100331.66;;;7.93;84.59
19795;BME280;10057;59.402;17.866;2023-03-20T11:58:55;100335.19;;;7.93;84.13
19795;BME280;10057;59.402;17.866;2023-03-20T12:01:23;100330.81;;;7.92;84.11
19795;BME280;10057;59.402;17.866;2023-03-20T12:06:24;100332.66;;;7.90;84.52
19795;BME280;10057;59.402;17.866;2023-03-20T12:09:02;100320.34;;;7.89;84.40
19795;BME280;10057;59.402;17.866;2023-03-20T12:11:44;100317.69;;;7.89;84.63
19795;BME280;10057;59.402;17.866;2023-03-20T12:14:26;100315.88;;;7.91;84.52
19795;BME280;10057;59.402;17.866;2023-03-20T12:17:23;100319.28;;;7.95;84.92
19795;BME280;10057;59.402;17.866;2023-03-20T12:19:56;100310.41;;;7.97;84.31
19795;BME280;10057;59.402;17.866;2023-03-20T12:22:30;100305.00;;;8.00;84.60
19795;BME280;10057;59.402;17.866;2023-03-20T12:25:23;100313.63;;;8.05;84.50
19795;BME280;10057;59.402;17.866;2023-03-20T12:36:40;100303.78;;;8.11;84.50
19795;BME280;10057;59.402;17.866;2023-03-20T12:39:15;100303.78;;;8.11;84.25
19795;BME280;10057;59.402;17.866;2023-03-20T12:41:56;100311.75;;;8.09;84.28
19795;BME280;10057;59.402;17.866;2023-03-20T12:47:06;100326.16;;;8.00;84.94
19795;BME280;10057;59.402;17.866;2023-03-20T12:50:00;100336.84;;;7.96;85.31
19795;BME280;10057;59.402;17.866;2023-03-20T12:55:56;100334.75;;;7.79;85.30
19795;BME280;10057;59.402;17.866;2023-03-20T12:58:45;100330.53;;;7.73;85.45
19795;BME280;10057;59.402;17.866;2023-03-20T13:01:19;100332.38;;;7.71;85.52
19795;BME280;10057;59.402;17.866;2023-03-20T13:17:32;100328.34;;;7.59;85.96
19795;BME280;10057;59.402;17.866;2023-03-20T13:25:59;100329.25;;;7.58;86.33
19795;BME280;10057;59.402;17.866;2023-03-20T13:34:10;100333.03;;;7.50;86.16
19795;BME280;10057;59.402;17.866;2023-03-20T13:39:26;100343.09;;;7.37;85.92
19795;BME280;10057;59.402;17.866;2023-03-20T13:41:56;100360.88;;;7.32;86.36
19795;BME280;10057;59.402;17.866;2023-03-20T13:44:27;100353.13;;;7.26;86.22
19795;BME280;10057;59.402;17.866;2023-03-20T13:47:22;100358.63;;;7.18;86.16
19795;BME280;10057;59.402;17.866;2023-03-20T13:49:55;100354.34;;;7.14;85.95
19795;BME280;10057;59.402;17.866;2023-03-20T13:52:28;100361.47;;;7.10;85.89
19795;BME280;10057;59.402;17.866;2023-03-20T13:55:23;100362.53;;;7.05;86.08
19795;BME280;10057;59.402;17.866;2023-03-20T13:58:22;100361.84;;;6.98;85.91
19795;BME280;10057;59.402;17.866;2023-03-20T14:03:39;100373.41;;;6.93;86.19
19795;BME280;10057;59.402;17.866;2023-03-20T14:08:52;100389.47;;;6.85;85.90
19795;BME280;10057;59.402;17.866;2023-03-20T14:16:31;100386.41;;;6.68;85.37
19795;BME280;10057;59.402;17.866;2023-03-20T14:19:07;100392.69;;;6.63;85.55
19795;BME280;10057;59.402;17.866;2023-03-20T14:21:38;100403.31;;;6.60;85.66
19795;BME280;10057;59.402;17.866;2023-03-20T14:24:05;100412.16;;;6.58;85.38
19795;BME280;10057;59.402;17.866;2023-03-20T14:26:37;100401.97;;;6.44;84.80
19795;BME280;10057;59.402;17.866;2023-03-20T14:31:37;100407.72;;;6.26;85.04
19795;BME280;10057;59.402;17.866;2023-03-20T14:37:03;100411.38;;;6.18;85.25
19795;BME280;10057;59.402;17.866;2023-03-20T14:39:42;100414.25;;;6.09;84.82
19795;BME280;10057;59.402;17.866;2023-03-20T14:50:52;100435.88;;;5.83;84.74
19795;BME280;10057;59.402;17.866;2023-03-20T14:53:23;100432.31;;;5.84;85.21
19795;BME280;10057;59.402;17.866;2023-03-20T15:01:08;100439.47;;;5.79;84.67
19795;BME280;10057;59.402;17.866;2023-03-20T15:03:40;100440.44;;;5.75;85.20
19795;BME280;10057;59.402;17.866;2023-03-20T15:06:08;100440.47;;;5.74;84.46
19795;BME280;10057;59.402;17.866;2023-03-20T15:08:42;100444.91;;;5.72;84.85
19795;BME280;10057;59.402;17.866;2023-03-20T15:11:12;100449.41;;;5.66;84.86
19795;BME280;10057;59.402;17.866;2023-03-20T15:13:40;100449.47;;;5.63;84.10
19795;BME280;10057;59.402;17.866;2023-03-20T15:16:11;100454.84;;;5.59;84.03
19795;BME280;10057;59.402;17.866;2023-03-20T15:18:44;100461.94;;;5.55;84.80
19795;BME280;10057;59.402;17.866;2023-03-20T15:21:22;100472.50;;;5.52;84.01
19795;BME280;10057;59.402;17.866;2023-03-20T15:23:53;100483.97;;;5.50;84.56
19795;BME280;10057;59.402;17.866;2023-03-20T15:26:21;100472.63;;;5.46;84.27
19795;BME280;10057;59.402;17.866;2023-03-20T15:28:58;100482.41;;;5.39;84.05
19795;BME280;10057;59.402;17.866;2023-03-20T15:31:30;100488.69;;;5.34;84.44
19795;BME280;10057;59.402;17.866;2023-03-20T15:33:59;100488.00;;;5.24;83.80